createdAt,value
2018-07-31T00:01:41.077Z,1.00
2018-07-31T00:04:09.564Z,99.90
2018-07-31T00:06:38.088Z,1.00
2018-07-31T00:09:08.245Z,1.00
2018-07-31T00:11:36.859Z,1.00
2018-07-31T00:14:05.366Z,99.90
2018-07-31T00:16:33.855Z,1.00
2018-07-31T00:19:02.323Z,99.90
2018-07-31T00:21:30.902Z,1.00
2018-07-31T00:23:59.374Z,99.90
2018-07-31T00:26:27.873Z,99.90
2018-07-31T00:28:56.335Z,99.90
2018-07-31T00:31:24.819Z,99.90
2018-07-31T00:33:53.324Z,99.90
2018-07-31T00:36:21.894Z,99.90
2018-07-31T00:38:50.469Z,99.90
2018-07-31T00:41:18.986Z,99.90
2018-07-31T00:43:47.451Z,99.90
2018-07-31T00:46:15.915Z,99.90
2018-07-31T00:48:44.379Z,1.00
2018-07-31T00:51:12.864Z,1.00
2018-07-31T00:53:41.323Z,99.90
2018-07-31T00:56:09.859Z,99.90
2018-07-31T00:58:38.313Z,99.90
2018-07-31T01:01:06.914Z,99.90
2018-07-31T01:03:35.510Z,99.90
2018-07-31T01:06:03.981Z,99.90
2018-07-31T01:08:32.522Z,99.90
2018-07-31T01:11:01.091Z,99.90
2018-07-31T01:13:29.528Z,1.00
2018-07-31T01:15:58.016Z,1.00
2018-07-31T01:18:26.498Z,1.00
2018-07-31T01:20:55.386Z,99.90
2018-07-31T01:23:23.820Z,1.00
2018-07-31T01:25:52.354Z,1.00
2018-07-31T01:28:20.806Z,1.00
2018-07-31T01:30:49.323Z,1.00
2018-07-31T01:33:17.762Z,1.00
2018-07-31T01:35:46.274Z,1.00
2018-07-31T01:38:14.740Z,99.90
2018-07-31T01:40:43.210Z,1.00
2018-07-31T01:43:11.654Z,1.00
2018-07-31T01:48:08.277Z,1.00
2018-07-31T01:50:37.070Z,1.00
2018-07-31T01:53:05.531Z,1.00
2018-07-31T01:55:33.975Z,1.00
2018-07-31T01:58:02.450Z,1.00
2018-07-31T02:00:30.964Z,1.00
2018-07-31T02:02:59.418Z,1.00
2018-07-31T02:05:27.918Z,1.00
2018-07-31T02:07:56.429Z,1.00
2018-07-31T02:10:24.938Z,1.00
2018-07-31T02:12:53.378Z,1.00
2018-07-31T02:15:21.893Z,1.00
2018-07-31T02:17:50.351Z,1.00
2018-07-31T02:20:18.867Z,1.00
2018-07-31T02:22:47.351Z,1.00
2018-07-31T02:25:15.805Z,1.00
2018-07-31T02:27:44.274Z,1.00
2018-07-31T02:30:18.211Z,1.00
2018-07-31T02:32:46.683Z,1.00
2018-07-31T02:35:15.150Z,1.00
2018-07-31T02:37:43.987Z,1.00
2018-07-31T02:40:12.512Z,1.00
2018-07-31T02:42:41.022Z,1.00
2018-07-31T02:45:12.407Z,1.00
2018-07-31T02:47:41.273Z,1.00
2018-07-31T02:50:10.068Z,1.00
2018-07-31T02:52:38.942Z,1.00
2018-07-31T02:55:08.279Z,1.00
2018-07-31T02:57:36.944Z,1.00
2018-07-31T03:00:07.000Z,1.00
2018-07-31T03:02:35.556Z,1.00
2018-07-31T03:05:04.807Z,1.00
2018-07-31T03:07:33.330Z,1.00
2018-07-31T03:10:01.971Z,1.00
2018-07-31T03:12:30.602Z,1.00
2018-07-31T03:14:59.114Z,1.00
2018-07-31T03:17:27.641Z,2.90
2018-07-31T03:19:56.156Z,9.40
2018-07-31T03:22:24.742Z,1.00
2018-07-31T03:24:53.447Z,5.30
2018-07-31T03:29:50.108Z,1.00
2018-07-31T03:32:18.642Z,1.00
2018-07-31T03:34:47.179Z,1.00
2018-07-31T03:37:15.788Z,28.10
2018-07-31T03:39:44.287Z,21.40
2018-07-31T03:42:12.795Z,21.30
2018-07-31T03:44:41.291Z,21.40
2018-07-31T03:47:09.852Z,31.50
2018-07-31T03:49:38.453Z,21.80
2018-07-31T03:52:07.249Z,14.30
2018-07-31T03:54:35.737Z,11.30
2018-07-31T03:57:04.223Z,13.50
2018-07-31T03:59:32.691Z,10.40
2018-07-31T04:02:01.188Z,11.50
2018-07-31T04:04:29.679Z,11.60
2018-07-31T04:06:58.183Z,30.90
2018-07-31T04:09:26.691Z,20.80
2018-07-31T04:11:55.302Z,26.90
2018-07-31T04:14:23.754Z,22.00
2018-07-31T04:16:52.231Z,15.30
2018-07-31T04:19:20.694Z,11.20
2018-07-31T04:21:49.137Z,14.40
2018-07-31T04:24:17.623Z,21.60
2018-07-31T04:26:46.090Z,21.50
2018-07-31T04:29:14.642Z,24.60
2018-07-31T04:31:43.196Z,25.60
2018-07-31T04:34:11.642Z,16.10
2018-07-31T04:36:40.154Z,19.50
2018-07-31T04:39:11.008Z,13.60
2018-07-31T04:41:39.663Z,13.90
2018-07-31T04:44:08.459Z,7.30
2018-07-31T04:46:37.122Z,3.60
2018-07-31T04:49:05.731Z,3.30
2018-07-31T04:51:34.188Z,15.00
2018-07-31T04:54:02.776Z,1.00
2018-07-31T04:56:31.291Z,1.00
2018-07-31T04:59:00.210Z,1.00
2018-07-31T05:01:28.964Z,1.00
2018-07-31T05:03:57.436Z,1.00
2018-07-31T05:06:25.899Z,1.00
2018-07-31T05:08:54.358Z,1.00
2018-07-31T05:11:22.818Z,1.00
2018-07-31T05:13:52.266Z,1.00
2018-07-31T05:16:20.733Z,1.00
2018-07-31T05:18:49.223Z,1.00
2018-07-31T05:21:17.805Z,1.00
2018-07-31T05:23:46.308Z,1.00
2018-07-31T05:26:14.942Z,1.00
2018-07-31T05:28:43.467Z,1.00
2018-07-31T05:31:12.028Z,1.00
2018-07-31T05:33:40.513Z,1.00
2018-07-31T05:36:08.993Z,1.00
2018-07-31T05:38:37.522Z,1.00
2018-07-31T05:41:06.154Z,99.90
2018-07-31T05:43:35.124Z,51.30
2018-07-31T05:48:32.255Z,99.90
2018-07-31T05:51:00.744Z,19.80
2018-07-31T05:53:29.222Z,99.90
2018-07-31T05:55:57.743Z,1.00
2018-07-31T05:58:26.251Z,42.90
2018-07-31T06:00:54.771Z,99.90
2018-07-31T06:03:23.395Z,99.90
2018-07-31T06:05:51.878Z,99.90
2018-07-31T06:08:20.355Z,1.00
2018-07-31T06:10:48.791Z,99.90
2018-07-31T06:13:17.563Z,99.90
2018-07-31T06:15:46.075Z,99.90
2018-07-31T06:18:14.778Z,1.00
2018-07-31T06:20:43.296Z,24.50
2018-07-31T06:23:11.943Z,1.00
2018-07-31T06:25:40.483Z,99.90
2018-07-31T06:28:08.973Z,99.90
2018-07-31T06:30:37.508Z,53.80
2018-07-31T06:33:06.009Z,1.00
2018-07-31T06:35:34.482Z,1.00
2018-07-31T06:38:03.150Z,1.00
2018-07-31T06:40:31.641Z,99.90
2018-07-31T06:43:00.157Z,99.90
2018-07-31T06:45:28.619Z,99.90
2018-07-31T06:47:57.112Z,99.90
2018-07-31T06:50:25.615Z,99.90
2018-07-31T06:52:54.110Z,99.90
2018-07-31T06:55:22.698Z,99.90
2018-07-31T06:57:51.179Z,99.90
2018-07-31T07:00:19.695Z,99.90
2018-07-31T07:02:48.197Z,99.90
2018-07-31T07:05:16.715Z,99.90
2018-07-31T07:07:45.251Z,99.90
2018-07-31T07:10:13.705Z,99.90
2018-07-31T07:12:42.222Z,99.90
2018-07-31T07:15:10.811Z,99.90
2018-07-31T07:20:07.650Z,99.90
2018-07-31T07:22:36.196Z,99.90
2018-07-31T07:25:04.912Z,99.90
2018-07-31T07:27:33.526Z,99.90
2018-07-31T07:30:02.030Z,99.90
2018-07-31T07:32:30.535Z,99.90
2018-07-31T07:34:59.033Z,99.90
2018-07-31T07:37:27.519Z,99.90
2018-07-31T07:39:56.594Z,99.90
2018-07-31T07:42:25.172Z,99.90
2018-07-31T07:44:53.677Z,99.90
2018-07-31T07:47:22.163Z,99.90
2018-07-31T07:49:50.655Z,99.90
2018-07-31T07:52:19.161Z,99.90
2018-07-31T07:54:47.630Z,99.90
2018-07-31T07:57:16.112Z,99.90
2018-07-31T07:59:45.290Z,99.90
2018-07-31T08:02:13.753Z,99.90
2018-07-31T08:04:42.259Z,99.90
2018-07-31T08:07:10.782Z,99.90
2018-07-31T08:09:39.257Z,99.90
2018-07-31T08:12:07.816Z,99.90
2018-07-31T08:14:36.329Z,99.90
2018-07-31T08:17:04.797Z,99.90
2018-07-31T08:19:33.280Z,99.90
2018-07-31T08:22:01.762Z,99.90
2018-07-31T08:24:30.244Z,99.90
2018-07-31T08:26:58.740Z,99.90
2018-07-31T08:29:27.275Z,99.90
2018-07-31T08:31:55.776Z,99.90
2018-07-31T08:34:24.687Z,99.90
2018-07-31T08:36:53.149Z,99.90
2018-07-31T08:39:21.600Z,99.90
2018-07-31T08:41:50.088Z,99.90
2018-07-31T08:44:19.388Z,99.90
2018-07-31T08:46:47.958Z,99.90
2018-07-31T08:49:17.114Z,99.90
2018-07-31T08:51:45.609Z,99.90
2018-07-31T08:54:14.088Z,99.90
2018-07-31T08:56:42.608Z,99.90
2018-07-31T08:59:11.061Z,99.90
2018-07-31T09:01:39.813Z,99.90
2018-07-31T09:04:09.232Z,99.90
2018-07-31T09:06:37.702Z,99.90
2018-07-31T09:09:08.798Z,99.90
2018-07-31T09:11:37.343Z,99.90
2018-07-31T09:14:06.780Z,99.90
2018-07-31T09:16:35.297Z,99.90
2018-07-31T09:19:03.826Z,99.90
2018-07-31T09:21:32.592Z,99.90
2018-07-31T09:24:01.618Z,99.90
2018-07-31T09:26:30.140Z,99.90
2018-07-31T09:28:58.623Z,99.90
2018-07-31T09:31:27.129Z,99.90
2018-07-31T09:33:55.630Z,99.90
2018-07-31T09:36:24.206Z,99.90
2018-07-31T09:38:52.721Z,99.90
2018-07-31T09:41:21.179Z,99.90
2018-07-31T09:43:49.671Z,99.90
2018-07-31T09:46:18.184Z,99.90
2018-07-31T09:48:46.675Z,99.90
2018-07-31T09:51:15.274Z,99.90
2018-07-31T09:53:43.734Z,99.90
2018-07-31T09:56:12.202Z,99.90
2018-07-31T09:58:40.692Z,99.90
2018-07-31T10:01:14.477Z,99.90
2018-07-31T10:03:42.950Z,99.90
2018-07-31T10:06:11.475Z,99.90
2018-07-31T10:08:40.150Z,99.90
2018-07-31T10:11:08.663Z,99.90
2018-07-31T10:13:37.272Z,99.90
2018-07-31T10:16:06.142Z,99.90
2018-07-31T10:18:34.678Z,99.90
2018-07-31T10:21:03.203Z,99.90
2018-07-31T10:23:31.699Z,99.90
2018-07-31T10:26:00.209Z,99.90
2018-07-31T10:28:28.677Z,99.90
2018-07-31T10:30:57.239Z,99.90
2018-07-31T10:33:25.668Z,99.90
2018-07-31T10:35:54.155Z,99.90
2018-07-31T10:38:23.697Z,99.90
2018-07-31T10:40:52.181Z,99.90
2018-07-31T10:43:20.770Z,99.90
2018-07-31T10:45:49.271Z,99.90
2018-07-31T10:48:17.790Z,99.90
2018-07-31T10:50:46.313Z,99.90
2018-07-31T10:53:14.947Z,99.90
2018-07-31T10:55:43.434Z,99.90
2018-07-31T10:58:11.980Z,99.90
2018-07-31T11:00:40.418Z,99.90
2018-07-31T11:05:37.133Z,99.90
2018-07-31T11:08:05.647Z,99.90
2018-07-31T11:10:34.714Z,99.90
2018-07-31T11:13:03.406Z,99.90
2018-07-31T11:15:32.053Z,99.90
2018-07-31T11:18:00.556Z,99.90
2018-07-31T11:20:29.171Z,99.90
2018-07-31T11:22:57.734Z,99.90
2018-07-31T11:25:26.332Z,99.90
2018-07-31T11:27:54.929Z,99.90
2018-07-31T11:30:23.402Z,99.90
2018-07-31T11:32:51.994Z,99.90
2018-07-31T11:35:20.468Z,99.90
2018-07-31T11:37:48.962Z,99.90
2018-07-31T11:40:17.439Z,99.90
2018-07-31T11:42:45.931Z,99.90
2018-07-31T11:45:14.445Z,99.90
2018-07-31T11:47:42.965Z,99.90
2018-07-31T11:50:11.507Z,99.90
2018-07-31T11:52:40.006Z,99.90
2018-07-31T11:55:08.522Z,99.90
2018-07-31T11:57:37.030Z,99.90
2018-07-31T12:00:07.714Z,99.90
2018-07-31T12:02:36.250Z,99.90
2018-07-31T12:05:05.051Z,99.90
2018-07-31T12:07:33.554Z,99.90
2018-07-31T12:10:02.091Z,99.90
2018-07-31T12:14:58.785Z,99.90
2018-07-31T12:17:27.273Z,99.90
2018-07-31T12:19:55.802Z,99.90
2018-07-31T12:22:24.328Z,99.90
2018-07-31T12:24:52.901Z,99.90
2018-07-31T12:27:22.888Z,99.90
2018-07-31T12:29:52.058Z,99.90
2018-07-31T12:32:20.646Z,99.90
2018-07-31T12:34:49.157Z,99.90
2018-07-31T12:37:17.653Z,99.90
2018-07-31T12:39:46.201Z,99.90
2018-07-31T12:42:14.707Z,99.90
2018-07-31T12:44:43.294Z,99.90
2018-07-31T12:47:11.988Z,99.90
2018-07-31T12:49:40.568Z,99.90
2018-07-31T12:52:09.777Z,99.90
2018-07-31T12:54:38.361Z,99.90
2018-07-31T12:57:06.955Z,99.90
2018-07-31T12:59:35.574Z,99.90
2018-07-31T13:02:04.243Z,99.90
2018-07-31T13:04:32.747Z,99.90
2018-07-31T13:07:01.261Z,99.90
2018-07-31T13:09:29.763Z,99.90
2018-07-31T13:11:58.243Z,99.90
2018-07-31T13:14:26.715Z,99.90
2018-07-31T13:16:55.258Z,99.90
2018-07-31T13:19:23.895Z,99.90
2018-07-31T13:21:52.596Z,99.90
2018-07-31T13:24:21.706Z,99.90
2018-07-31T13:26:50.286Z,99.90
2018-07-31T13:29:18.782Z,99.90
2018-07-31T13:34:15.456Z,99.90
2018-07-31T13:36:44.000Z,99.90
2018-07-31T13:39:12.544Z,99.90
2018-07-31T13:41:41.036Z,99.90
2018-07-31T13:44:09.819Z,99.90
2018-07-31T13:46:38.098Z,99.90
2018-07-31T13:49:06.663Z,99.90
2018-07-31T13:51:35.263Z,99.90
2018-07-31T13:54:03.865Z,99.90
2018-07-31T13:56:32.371Z,99.90
2018-07-31T13:59:00.960Z,99.90
2018-07-31T14:01:29.484Z,99.90
2018-07-31T14:03:57.999Z,99.90
2018-07-31T14:06:26.486Z,99.90
2018-07-31T14:08:54.969Z,99.90
2018-07-31T14:11:23.463Z,99.90
2018-07-31T14:13:52.035Z,99.90
2018-07-31T14:16:20.509Z,99.90
2018-07-31T14:18:49.010Z,99.90
2018-07-31T14:21:18.579Z,99.90
2018-07-31T14:23:47.164Z,99.90
2018-07-31T14:26:15.711Z,99.90
2018-07-31T14:28:44.454Z,99.90
2018-07-31T14:31:13.252Z,99.90
2018-07-31T14:33:41.773Z,99.90
2018-07-31T14:36:10.374Z,99.90
2018-07-31T14:38:39.059Z,99.90
2018-07-31T14:41:07.527Z,99.90
2018-07-31T14:43:36.258Z,99.90
2018-07-31T14:46:04.875Z,99.90
2018-07-31T14:48:33.494Z,99.90
2018-07-31T14:51:01.963Z,99.90
2018-07-31T14:53:30.516Z,99.90
2018-07-31T14:55:59.081Z,99.90
2018-07-31T14:58:27.762Z,99.90
2018-07-31T15:00:56.461Z,99.90
2018-07-31T15:03:25.025Z,99.90
2018-07-31T15:05:55.005Z,99.90
2018-07-31T15:08:23.727Z,99.90
2018-07-31T15:10:52.545Z,99.90
2018-07-31T15:13:21.139Z,99.90
2018-07-31T15:15:49.690Z,99.90
2018-07-31T15:20:46.550Z,99.90
2018-07-31T15:23:15.964Z,99.90
2018-07-31T15:25:44.518Z,99.90
2018-07-31T15:28:13.271Z,99.90
2018-07-31T15:30:41.769Z,99.90
2018-07-31T15:33:10.496Z,99.90
2018-07-31T15:35:39.084Z,99.90
2018-07-31T15:38:07.741Z,99.90
2018-07-31T15:40:36.432Z,99.90
2018-07-31T15:43:05.188Z,99.90
2018-07-31T15:45:33.767Z,99.90
2018-07-31T15:48:02.382Z,99.90
2018-07-31T15:50:31.007Z,99.90
2018-07-31T15:52:59.652Z,99.90
2018-07-31T15:55:28.400Z,99.90
2018-07-31T15:57:57.051Z,99.90
2018-07-31T16:00:25.843Z,99.90
2018-07-31T16:02:54.352Z,99.90
2018-07-31T16:05:22.853Z,99.90
2018-07-31T16:07:51.443Z,99.90
2018-07-31T16:10:20.226Z,99.90
2018-07-31T16:12:48.898Z,99.90
2018-07-31T16:15:17.566Z,99.90
2018-07-31T16:17:46.348Z,99.90
2018-07-31T16:20:15.473Z,99.90
2018-07-31T16:22:44.891Z,99.90
2018-07-31T16:25:13.426Z,99.90
2018-07-31T16:27:41.971Z,99.90
2018-07-31T16:30:10.628Z,99.90
2018-07-31T16:32:39.417Z,99.90
2018-07-31T16:35:08.017Z,99.90
2018-07-31T16:37:36.680Z,99.90
2018-07-31T16:40:05.795Z,99.90
2018-07-31T16:42:34.315Z,99.90
2018-07-31T16:45:02.900Z,99.90
2018-07-31T16:47:31.415Z,99.90
2018-07-31T16:49:59.958Z,99.90
2018-07-31T16:52:28.547Z,99.90
2018-07-31T16:54:57.111Z,99.90
2018-07-31T16:57:25.569Z,99.90
2018-07-31T16:59:54.046Z,99.90
2018-07-31T17:02:22.544Z,99.90
2018-07-31T17:04:51.056Z,99.90
2018-07-31T17:07:19.679Z,99.90
2018-07-31T17:09:48.221Z,99.90
2018-07-31T17:12:16.720Z,99.90
2018-07-31T17:14:45.286Z,99.90
2018-07-31T17:17:13.987Z,99.90
2018-07-31T17:19:42.497Z,99.90
2018-07-31T17:22:11.003Z,99.90
2018-07-31T17:24:39.620Z,99.90
2018-07-31T17:27:08.169Z,99.90
2018-07-31T17:29:36.677Z,99.90
2018-07-31T17:32:05.238Z,99.90
2018-07-31T17:34:33.807Z,99.90
2018-07-31T17:37:02.387Z,99.90
2018-07-31T17:39:30.959Z,99.90
2018-07-31T17:41:59.593Z,99.90
2018-07-31T17:44:28.159Z,99.90
2018-07-31T17:46:56.600Z,99.90
2018-07-31T17:49:25.126Z,99.90
2018-07-31T17:51:53.705Z,99.90
2018-07-31T17:56:50.585Z,99.90
2018-07-31T17:59:19.202Z,99.90
2018-07-31T18:01:47.958Z,99.90
2018-07-31T18:04:16.850Z,99.90
2018-07-31T18:06:45.395Z,99.90
2018-07-31T18:09:14.492Z,99.90
2018-07-31T18:11:43.110Z,99.90
2018-07-31T18:14:11.728Z,99.90
2018-07-31T18:16:40.141Z,99.90
2018-07-31T18:19:08.970Z,99.90
2018-07-31T18:21:38.165Z,99.90
2018-07-31T18:24:07.371Z,99.90
2018-07-31T18:26:36.480Z,99.90
2018-07-31T18:29:05.446Z,99.90
2018-07-31T18:31:33.947Z,99.90
2018-07-31T18:34:02.465Z,99.90
2018-07-31T18:36:31.105Z,99.90
2018-07-31T18:38:59.594Z,99.90
2018-07-31T18:41:28.109Z,99.90
2018-07-31T18:43:56.717Z,99.90
2018-07-31T18:46:25.329Z,99.90
2018-07-31T18:51:22.165Z,99.90
2018-07-31T18:53:50.905Z,99.90
2018-07-31T18:56:19.465Z,99.90
2018-07-31T18:58:48.002Z,99.90
2018-07-31T19:01:17.007Z,99.90
2018-07-31T19:03:45.608Z,99.90
2018-07-31T19:06:14.306Z,99.90
2018-07-31T19:08:43.976Z,99.90
2018-07-31T19:11:12.830Z,99.90
2018-07-31T19:13:41.532Z,99.90
2018-07-31T19:16:13.387Z,99.90
2018-07-31T19:18:42.164Z,99.90
2018-07-31T19:23:39.215Z,99.90
2018-07-31T19:26:07.777Z,99.90
2018-07-31T19:28:36.651Z,99.90
2018-07-31T19:31:05.278Z,99.90
2018-07-31T19:33:33.976Z,99.90
2018-07-31T19:36:02.887Z,99.90
2018-07-31T19:38:31.598Z,99.90
2018-07-31T19:41:00.298Z,99.90
2018-07-31T19:43:28.894Z,99.90
2018-07-31T19:45:57.960Z,99.90
2018-07-31T19:48:26.578Z,99.90
2018-07-31T19:50:55.768Z,99.90
2018-07-31T19:53:24.487Z,99.90
2018-07-31T19:55:53.411Z,99.90
2018-07-31T19:58:22.204Z,99.90
2018-07-31T20:00:50.958Z,99.90
2018-07-31T20:03:19.829Z,99.90
2018-07-31T20:05:48.346Z,99.90
2018-07-31T20:08:17.469Z,99.90
2018-07-31T20:10:46.348Z,99.90
2018-07-31T20:13:14.899Z,99.90
2018-07-31T20:15:43.744Z,99.90
2018-07-31T20:18:13.416Z,99.90
2018-07-31T20:20:41.982Z,99.90
2018-07-31T20:23:10.660Z,99.90
2018-07-31T20:25:39.446Z,99.90
2018-07-31T20:28:08.007Z,99.90
2018-07-31T20:30:36.578Z,99.90
2018-07-31T20:33:05.368Z,99.90
2018-07-31T20:35:33.880Z,99.90
2018-07-31T20:38:02.404Z,99.90
2018-07-31T20:40:30.979Z,99.90
2018-07-31T20:42:59.749Z,99.90
2018-07-31T20:45:28.284Z,99.90
2018-07-31T20:47:56.947Z,99.90
2018-07-31T20:50:25.569Z,99.90
2018-07-31T20:52:54.089Z,99.90
2018-07-31T20:55:22.570Z,99.90
2018-07-31T20:57:51.073Z,99.90
2018-07-31T21:00:19.668Z,99.90
2018-07-31T21:02:48.262Z,99.90
2018-07-31T21:05:16.930Z,99.90
2018-07-31T21:07:45.459Z,99.90
2018-07-31T21:10:14.100Z,99.90
2018-07-31T21:12:42.674Z,99.90
2018-07-31T21:15:11.215Z,99.90
2018-07-31T21:17:39.737Z,99.90
2018-07-31T21:20:08.425Z,99.90
2018-07-31T21:22:36.939Z,99.90
2018-07-31T21:25:05.789Z,99.90
2018-07-31T21:30:02.750Z,99.90
2018-07-31T21:32:31.602Z,99.90
2018-07-31T21:35:00.165Z,99.90
2018-07-31T21:37:28.736Z,99.90
2018-07-31T21:39:57.219Z,99.90
2018-07-31T21:42:25.798Z,99.90
2018-07-31T21:44:54.276Z,99.90
2018-07-31T21:47:22.776Z,99.90
2018-07-31T21:52:19.419Z,99.90
2018-07-31T21:54:47.897Z,99.90
2018-07-31T21:57:16.390Z,99.90
2018-07-31T21:59:44.951Z,99.90
2018-07-31T22:02:13.547Z,99.90
2018-07-31T22:07:10.328Z,1.00
2018-07-31T22:09:44.040Z,1.00
2018-07-31T22:12:13.104Z,99.90
2018-07-31T22:14:42.130Z,1.00
2018-07-31T22:17:10.731Z,1.00
2018-07-31T22:19:39.309Z,1.00
2018-07-31T22:22:07.811Z,1.00
2018-07-31T22:24:36.329Z,1.00
2018-07-31T22:27:04.779Z,1.00
2018-07-31T22:29:33.280Z,9.30
2018-07-31T22:32:01.786Z,15.90
2018-07-31T22:34:30.225Z,33.80
2018-07-31T22:36:58.683Z,1.00
2018-07-31T22:39:27.166Z,1.00
2018-07-31T22:41:55.708Z,1.00
2018-07-31T22:44:24.201Z,1.00
2018-07-31T22:46:52.750Z,3.60
2018-07-31T22:49:21.257Z,30.70
2018-07-31T22:51:49.756Z,20.80
2018-07-31T22:54:18.243Z,27.30
2018-07-31T22:56:46.707Z,33.30
2018-07-31T22:59:15.185Z,36.20
2018-07-31T23:01:43.636Z,24.50
2018-07-31T23:04:12.093Z,35.60
2018-07-31T23:06:40.576Z,29.50
2018-07-31T23:09:10.490Z,41.10
2018-07-31T23:11:38.934Z,35.40
2018-07-31T23:14:07.476Z,33.70
2018-07-31T23:16:36.726Z,45.90
2018-07-31T23:19:05.312Z,76.80
2018-07-31T23:21:33.867Z,81.50
2018-07-31T23:24:02.355Z,63.20
2018-07-31T23:26:30.804Z,66.10
2018-07-31T23:28:59.290Z,84.00
2018-07-31T23:31:27.868Z,85.00
2018-07-31T23:33:56.349Z,92.90
2018-07-31T23:36:24.826Z,93.80
2018-07-31T23:38:53.318Z,93.90
2018-07-31T23:41:21.798Z,99.90
2018-07-31T23:43:50.843Z,99.90
2018-07-31T23:46:19.313Z,99.90
2018-07-31T23:48:47.807Z,99.50
2018-07-31T23:51:16.328Z,99.90
2018-07-31T23:53:44.784Z,83.10
2018-07-31T23:56:13.291Z,91.10
2018-07-31T23:58:41.752Z,99.90
